createdAt,value
2022-11-08T00:00:38.878Z,1.80
2022-11-08T00:01:44.978Z,1.73
2022-11-08T00:02:46.938Z,2.00
2022-11-08T00:03:48.746Z,2.60
2022-11-08T00:04:50.556Z,2.35
2022-11-08T00:06:13.806Z,2.60
2022-11-08T00:07:34.685Z,1.60
2022-11-08T00:08:55.068Z,2.10
2022-11-08T00:10:15.390Z,2.90
2022-11-08T00:11:35.624Z,2.50
2022-11-08T00:12:56.704Z,2.00
2022-11-08T00:13:59.855Z,2.25
2022-11-08T00:15:02.710Z,1.67
2022-11-08T00:16:04.991Z,1.80
2022-11-08T00:17:06.996Z,2.00
2022-11-08T00:18:08.602Z,2.03
2022-11-08T00:19:11.570Z,1.60
2022-11-08T00:20:13.209Z,1.90
2022-11-08T00:21:15.257Z,1.73
2022-11-08T00:22:17.603Z,1.60
2022-11-08T00:23:20.296Z,2.30
2022-11-08T00:24:21.857Z,1.63
2022-11-08T00:25:24.004Z,1.52
2022-11-08T00:26:25.568Z,1.80
2022-11-08T00:27:28.031Z,1.70
2022-11-08T00:28:29.656Z,1.40
2022-11-08T00:29:31.305Z,1.23
2022-11-08T00:30:32.932Z,1.38
2022-11-08T00:31:35.898Z,1.55
2022-11-08T00:32:39.526Z,1.23
2022-11-08T00:33:41.594Z,1.60
2022-11-08T00:34:43.740Z,1.90
2022-11-08T00:35:45.550Z,1.67
2022-11-08T00:36:47.308Z,2.03
2022-11-08T00:37:49.142Z,1.70
2022-11-08T00:38:54.090Z,1.50
2022-11-08T00:39:55.927Z,1.95
2022-11-08T00:40:57.604Z,1.60
2022-11-08T00:41:59.234Z,1.65
2022-11-08T00:43:00.895Z,2.00
2022-11-08T00:44:02.547Z,1.90
2022-11-08T00:45:04.603Z,1.98
2022-11-08T00:46:06.434Z,1.40
2022-11-08T00:47:08.195Z,1.80
2022-11-08T00:48:10.030Z,1.90
2022-11-08T00:49:12.338Z,1.63
2022-11-08T00:50:14.053Z,1.90
2022-11-08T00:51:15.723Z,1.55
2022-11-08T00:52:17.338Z,1.40
2022-11-08T00:53:18.929Z,1.90
2022-11-08T00:54:21.455Z,1.70
2022-11-08T00:55:23.168Z,1.30
2022-11-08T00:56:25.322Z,1.90
2022-11-08T00:57:47.209Z,1.70
2022-11-08T00:58:52.065Z,2.08
2022-11-08T00:59:53.671Z,1.75
2022-11-08T01:00:56.416Z,1.70
2022-11-08T01:01:58.229Z,1.90
2022-11-08T01:03:18.529Z,2.17
2022-11-08T01:04:20.793Z,2.05
2022-11-08T01:05:22.554Z,2.08
2022-11-08T01:06:26.098Z,1.40
2022-11-08T01:07:28.036Z,1.77
2022-11-08T01:08:31.170Z,1.75
2022-11-08T01:09:32.822Z,1.40
2022-11-08T01:10:36.360Z,1.80
2022-11-08T01:11:39.060Z,1.98
2022-11-08T01:12:40.843Z,1.63
2022-11-08T01:13:42.940Z,1.63
2022-11-08T01:14:46.131Z,1.30
2022-11-08T01:15:47.754Z,1.60
2022-11-08T01:16:49.647Z,1.83
2022-11-08T01:17:51.261Z,1.35
2022-11-08T01:18:55.177Z,1.80
2022-11-08T01:19:56.917Z,1.85
2022-11-08T01:20:58.876Z,1.40
2022-11-08T01:22:01.051Z,1.40
2022-11-08T01:23:03.805Z,1.92
2022-11-08T01:24:06.470Z,1.42
2022-11-08T01:25:08.585Z,1.85
2022-11-08T01:26:14.656Z,1.50
2022-11-08T01:27:17.853Z,1.25
2022-11-08T01:28:19.791Z,1.23
2022-11-08T01:29:21.976Z,1.80
2022-11-08T01:30:23.594Z,1.73
2022-11-08T01:31:28.040Z,1.30
2022-11-08T01:32:31.102Z,1.60
2022-11-08T01:33:33.898Z,0.80
2022-11-08T01:34:36.003Z,1.27
2022-11-08T01:35:37.859Z,1.73
2022-11-08T01:36:41.878Z,1.67
2022-11-08T01:37:45.623Z,1.52
2022-11-08T01:38:48.139Z,1.75
2022-11-08T01:39:49.849Z,1.13
2022-11-08T01:40:52.463Z,1.55
2022-11-08T01:41:54.827Z,1.10
2022-11-08T01:42:57.366Z,1.13
2022-11-08T01:44:00.557Z,1.45
2022-11-08T01:45:04.368Z,1.90
2022-11-08T01:46:31.182Z,1.30
2022-11-08T01:47:32.923Z,1.37
2022-11-08T01:48:34.783Z,1.30
2022-11-08T01:49:43.911Z,1.30
2022-11-08T01:50:45.864Z,1.27
2022-11-08T01:51:55.994Z,1.55
2022-11-08T01:52:58.980Z,1.00
2022-11-08T01:54:05.648Z,1.38
2022-11-08T01:55:10.549Z,1.42
2022-11-08T01:56:16.142Z,1.15
2022-11-08T01:57:29.209Z,0.90
2022-11-08T01:58:38.060Z,1.05
2022-11-08T01:59:42.747Z,1.10
2022-11-08T02:01:03.544Z,1.13
2022-11-08T02:02:11.290Z,1.20
2022-11-08T02:03:34.578Z,1.00
2022-11-08T02:04:38.634Z,1.45
2022-11-08T02:05:44.352Z,1.60
2022-11-08T02:06:46.606Z,1.20
2022-11-08T02:07:50.483Z,1.00
2022-11-08T02:08:52.780Z,0.85
2022-11-08T02:09:56.704Z,1.33
2022-11-08T02:10:58.889Z,1.25
2022-11-08T02:12:00.849Z,1.30
2022-11-08T02:13:05.146Z,1.40
2022-11-08T02:14:08.519Z,1.27
2022-11-08T02:15:11.906Z,0.95
2022-11-08T02:16:16.747Z,1.27
2022-11-08T02:17:18.911Z,1.33
2022-11-08T02:18:24.478Z,1.10
2022-11-08T02:19:46.578Z,1.17
2022-11-08T02:21:03.039Z,1.75
2022-11-08T02:22:10.653Z,1.10
2022-11-08T02:23:22.140Z,1.05
2022-11-08T02:24:24.373Z,1.10
2022-11-08T02:25:28.803Z,1.20
2022-11-08T02:26:36.079Z,1.58
2022-11-08T02:27:37.597Z,1.00
2022-11-08T02:28:42.056Z,1.30
2022-11-08T02:29:45.206Z,1.02
2022-11-08T02:30:47.258Z,1.10
2022-11-08T02:31:50.408Z,1.40
2022-11-08T02:32:52.266Z,1.20
2022-11-08T02:33:54.037Z,1.20
2022-11-08T02:34:59.279Z,1.63
2022-11-08T02:36:02.123Z,0.70
2022-11-08T02:37:06.059Z,1.38
2022-11-08T02:38:08.758Z,1.10
2022-11-08T02:39:11.041Z,1.10
2022-11-08T02:40:12.885Z,1.45
2022-11-08T02:41:15.228Z,1.00
2022-11-08T02:42:18.845Z,1.00
2022-11-08T02:43:21.692Z,0.80
2022-11-08T02:44:23.197Z,0.88
2022-11-08T02:45:24.879Z,1.52
2022-11-08T02:46:26.612Z,1.00
2022-11-08T02:47:29.810Z,1.08
2022-11-08T02:48:31.625Z,1.33
2022-11-08T02:49:33.439Z,1.20
2022-11-08T02:50:36.012Z,1.40
2022-11-08T02:51:37.747Z,1.27
2022-11-08T02:52:39.529Z,1.10
2022-11-08T02:53:41.587Z,1.40
2022-11-08T02:54:43.143Z,1.35
2022-11-08T02:55:46.411Z,1.20
2022-11-08T02:56:48.121Z,1.25
2022-11-08T02:57:50.196Z,0.93
2022-11-08T02:58:52.389Z,1.50
2022-11-08T02:59:55.561Z,1.05
2022-11-08T03:00:57.413Z,1.20
2022-11-08T03:02:00.155Z,1.20
2022-11-08T03:03:02.642Z,1.70
2022-11-08T03:04:05.189Z,1.20
2022-11-08T03:05:07.219Z,1.42
2022-11-08T03:06:09.212Z,1.25
2022-11-08T03:07:11.229Z,0.90
2022-11-08T03:08:13.578Z,1.30
2022-11-08T03:09:15.143Z,1.00
2022-11-08T03:10:18.414Z,1.17
2022-11-08T03:11:20.273Z,1.27
2022-11-08T03:12:22.249Z,1.40
2022-11-08T03:13:23.823Z,1.25
2022-11-08T03:14:25.919Z,1.20
2022-11-08T03:15:29.529Z,0.77
2022-11-08T03:16:32.520Z,1.10
2022-11-08T03:17:34.652Z,1.10
2022-11-08T03:18:36.726Z,1.00
2022-11-08T03:19:39.015Z,1.00
2022-11-08T03:20:40.925Z,1.08
2022-11-08T03:21:43.046Z,0.80
2022-11-08T03:22:46.261Z,1.20
2022-11-08T03:23:48.005Z,1.20
2022-11-08T03:24:49.674Z,1.20
2022-11-08T03:25:51.299Z,1.00
2022-11-08T03:26:53.601Z,1.23
2022-11-08T03:27:55.555Z,1.58
2022-11-08T03:28:57.353Z,1.35
2022-11-08T03:29:59.010Z,1.02
2022-11-08T03:31:00.958Z,1.10
2022-11-08T03:32:02.604Z,1.10
2022-11-08T03:33:04.437Z,1.08
2022-11-08T03:34:06.064Z,1.17
2022-11-08T03:35:08.805Z,1.15
2022-11-08T03:36:12.944Z,1.30
2022-11-08T03:37:14.716Z,1.65
2022-11-08T03:38:17.406Z,2.00
2022-11-08T03:39:19.209Z,1.20
2022-11-08T03:40:22.101Z,1.38
2022-11-08T03:41:23.892Z,1.35
2022-11-08T03:42:25.504Z,1.33
2022-11-08T03:43:27.447Z,1.50
2022-11-08T03:44:30.410Z,1.20
2022-11-08T03:45:33.707Z,2.33
2022-11-08T03:46:38.099Z,1.80
2022-11-08T03:47:40.921Z,1.60
2022-11-08T03:48:42.752Z,1.30
2022-11-08T03:49:45.527Z,1.50
2022-11-08T03:50:47.425Z,1.83
2022-11-08T03:51:48.960Z,1.90
2022-11-08T03:52:52.933Z,1.80
2022-11-08T03:53:55.987Z,1.45
2022-11-08T03:54:57.842Z,1.05
2022-11-08T03:56:00.957Z,1.95
2022-11-08T03:57:02.987Z,2.00
2022-11-08T03:58:04.511Z,1.50
2022-11-08T03:59:06.143Z,1.83
2022-11-08T04:00:10.291Z,1.83
2022-11-08T04:01:12.070Z,2.00
2022-11-08T04:02:13.912Z,2.70
2022-11-08T04:03:15.682Z,2.00
2022-11-08T04:04:17.361Z,1.90
2022-11-08T04:05:19.232Z,1.48
2022-11-08T04:06:20.870Z,2.13
2022-11-08T04:07:23.015Z,2.33
2022-11-08T04:08:24.715Z,2.55
2022-11-08T04:09:29.105Z,2.25
2022-11-08T04:10:30.963Z,2.17
2022-11-08T04:11:51.677Z,2.00
2022-11-08T04:13:12.193Z,2.67
2022-11-08T04:14:32.421Z,2.00
2022-11-08T04:15:34.041Z,2.28
2022-11-08T04:16:35.743Z,2.80
2022-11-08T04:17:55.635Z,2.50
2022-11-08T04:19:15.999Z,2.30
2022-11-08T04:20:36.391Z,2.72
2022-11-08T04:21:38.613Z,2.75
2022-11-08T04:22:40.108Z,3.10
2022-11-08T04:23:42.129Z,3.03
2022-11-08T04:24:44.787Z,3.63
2022-11-08T04:25:54.081Z,5.78
2022-11-08T04:26:55.812Z,6.88
2022-11-08T04:27:57.646Z,7.28
2022-11-08T04:29:01.627Z,8.35
2022-11-08T04:30:03.726Z,7.30
2022-11-08T04:31:18.253Z,6.68
2022-11-08T04:32:19.799Z,5.57
2022-11-08T04:33:21.652Z,6.45
2022-11-08T04:34:23.404Z,5.00
2022-11-08T04:35:25.961Z,5.20
2022-11-08T04:36:27.513Z,5.45
2022-11-08T04:37:29.376Z,5.15
2022-11-08T04:38:32.307Z,3.97
2022-11-08T04:39:34.077Z,4.53
2022-11-08T04:40:36.076Z,3.60
2022-11-08T04:41:44.046Z,3.80
2022-11-08T04:42:45.766Z,3.95
2022-11-08T04:43:48.202Z,4.13
2022-11-08T04:44:50.278Z,3.65
2022-11-08T04:45:52.232Z,3.00
2022-11-08T04:46:54.368Z,3.67
2022-11-08T04:47:59.254Z,4.07
2022-11-08T04:49:04.085Z,3.35
2022-11-08T04:50:06.405Z,3.50
2022-11-08T04:51:14.341Z,3.42
2022-11-08T04:52:16.223Z,3.50
2022-11-08T04:53:18.145Z,3.80
2022-11-08T04:54:20.375Z,3.80
2022-11-08T04:55:24.264Z,3.58
2022-11-08T04:56:28.141Z,4.07
2022-11-08T04:57:29.832Z,4.03
2022-11-08T04:58:42.115Z,4.00
2022-11-08T04:59:44.750Z,3.90
2022-11-08T05:00:48.746Z,4.10
2022-11-08T05:01:51.319Z,3.33
2022-11-08T05:02:53.816Z,3.20
2022-11-08T05:03:55.712Z,3.60
2022-11-08T05:05:00.191Z,3.60
2022-11-08T05:06:11.715Z,3.38
2022-11-08T05:07:15.047Z,3.58
2022-11-08T05:08:17.249Z,3.55
2022-11-08T05:09:20.366Z,3.60
2022-11-08T05:10:22.155Z,3.55
2022-11-08T05:11:31.754Z,3.40
2022-11-08T05:12:33.330Z,3.25
2022-11-08T05:13:38.266Z,3.88
2022-11-08T05:14:39.765Z,2.80
2022-11-08T05:15:41.395Z,3.05
2022-11-08T05:16:46.083Z,3.30
2022-11-08T05:17:48.202Z,2.83
2022-11-08T05:18:50.652Z,2.72
2022-11-08T05:20:11.914Z,3.35
2022-11-08T05:21:36.170Z,3.25
2022-11-08T05:22:56.947Z,3.40
2022-11-08T05:24:00.363Z,3.72
2022-11-08T05:25:03.876Z,3.47
2022-11-08T05:26:06.464Z,4.53
2022-11-08T05:27:09.918Z,4.30
2022-11-08T05:28:11.572Z,5.20
2022-11-08T05:29:15.346Z,5.55
2022-11-08T05:30:17.168Z,4.65
2022-11-08T05:31:19.321Z,5.30
2022-11-08T05:32:20.978Z,5.47
2022-11-08T05:33:24.558Z,5.05
2022-11-08T05:34:27.433Z,3.55
2022-11-08T05:35:29.367Z,4.63
2022-11-08T05:36:30.871Z,4.22
2022-11-08T05:37:32.979Z,4.82
2022-11-08T05:38:35.061Z,4.45
2022-11-08T05:39:37.167Z,4.25
2022-11-08T05:40:38.893Z,5.22
2022-11-08T05:41:40.971Z,5.35
2022-11-08T05:42:44.277Z,4.25
2022-11-08T05:43:47.938Z,4.68
2022-11-08T05:44:50.824Z,4.22
2022-11-08T05:45:52.591Z,4.82
2022-11-08T05:46:55.329Z,5.18
2022-11-08T05:47:58.552Z,4.25
2022-11-08T05:49:01.399Z,4.80
2022-11-08T05:50:06.618Z,4.43
2022-11-08T05:51:08.519Z,3.38
2022-11-08T05:52:10.489Z,2.35
2022-11-08T05:53:12.540Z,2.67
2022-11-08T05:54:14.672Z,1.80
2022-11-08T05:55:17.595Z,1.95
2022-11-08T05:56:19.393Z,1.88
2022-11-08T05:57:22.535Z,1.70
2022-11-08T05:58:24.173Z,1.70
2022-11-08T05:59:38.446Z,1.80
2022-11-08T06:00:41.331Z,1.52
2022-11-08T06:01:44.286Z,1.55
2022-11-08T06:02:46.321Z,1.40
2022-11-08T06:03:49.517Z,1.27
2022-11-08T06:04:52.555Z,1.58
2022-11-08T06:05:54.903Z,1.33
2022-11-08T06:06:56.587Z,1.33
2022-11-08T06:07:59.025Z,1.35
2022-11-08T06:09:00.707Z,1.10
2022-11-08T06:10:04.117Z,1.60
2022-11-08T06:11:08.255Z,1.52
2022-11-08T06:12:10.035Z,1.20
2022-11-08T06:13:16.462Z,1.30
2022-11-08T06:14:19.327Z,1.40
2022-11-08T06:15:21.546Z,1.20
2022-11-08T06:16:25.699Z,1.23
2022-11-08T06:17:30.266Z,1.00
2022-11-08T06:18:36.260Z,1.00
2022-11-08T06:19:38.005Z,1.20
2022-11-08T06:20:41.247Z,1.00
2022-11-08T06:21:43.240Z,0.80
2022-11-08T06:22:44.913Z,1.45
2022-11-08T06:23:47.285Z,1.20
2022-11-08T06:24:49.463Z,1.08
2022-11-08T06:25:51.338Z,1.15
2022-11-08T06:26:54.240Z,8.50
2022-11-08T06:27:56.186Z,1.20
2022-11-08T06:28:57.858Z,0.90
2022-11-08T06:29:59.705Z,1.08
2022-11-08T06:31:02.778Z,1.33
2022-11-08T06:32:04.747Z,1.00
2022-11-08T06:33:06.799Z,1.05
2022-11-08T06:34:09.202Z,1.30
2022-11-08T06:35:11.954Z,0.70
2022-11-08T06:36:14.022Z,1.30
2022-11-08T06:37:16.494Z,0.90
2022-11-08T06:38:18.584Z,1.10
2022-11-08T06:39:20.525Z,1.30
2022-11-08T06:40:22.614Z,9.80
2022-11-08T06:41:27.465Z,22.45
2022-11-08T06:42:29.714Z,4.68
2022-11-08T06:43:32.313Z,3.20
2022-11-08T06:44:34.397Z,3.60
2022-11-08T06:45:38.630Z,4.63
2022-11-08T06:46:40.569Z,5.35
2022-11-08T06:47:42.264Z,7.13
2022-11-08T06:48:44.254Z,4.95
2022-11-08T06:49:48.046Z,3.33
2022-11-08T06:50:51.102Z,4.47
2022-11-08T06:51:53.202Z,4.00
2022-11-08T06:52:59.829Z,5.32
2022-11-08T06:54:06.823Z,5.55
2022-11-08T06:55:10.416Z,5.70
2022-11-08T06:56:12.778Z,17.63
2022-11-08T06:57:14.682Z,3.10
2022-11-08T06:58:16.381Z,8.52
2022-11-08T06:59:18.334Z,14.95
2022-11-08T07:00:20.519Z,15.68
2022-11-08T07:01:22.229Z,5.75
2022-11-08T07:02:25.825Z,3.80
2022-11-08T07:03:27.546Z,8.30
2022-11-08T07:04:29.874Z,11.00
2022-11-08T07:05:34.479Z,6.10
2022-11-08T07:06:36.656Z,2.47
2022-11-08T07:07:38.744Z,4.20
2022-11-08T07:08:40.844Z,10.95
2022-11-08T07:09:44.162Z,8.63
2022-11-08T07:10:46.363Z,20.17
2022-11-08T07:11:48.321Z,12.43
2022-11-08T07:12:59.314Z,13.43
2022-11-08T07:14:01.049Z,5.40
2022-11-08T07:15:03.900Z,7.28
2022-11-08T07:16:06.866Z,4.88
2022-11-08T07:17:10.644Z,6.07
2022-11-08T07:18:15.039Z,4.80
2022-11-08T07:19:17.057Z,4.38
2022-11-08T07:20:22.288Z,4.50
2022-11-08T07:21:24.089Z,6.90
2022-11-08T07:22:26.156Z,4.57
2022-11-08T07:23:29.058Z,5.55
2022-11-08T07:24:30.629Z,4.80
2022-11-08T07:25:33.375Z,5.80
2022-11-08T07:26:35.068Z,4.30
2022-11-08T07:27:38.141Z,4.22
2022-11-08T07:28:40.305Z,4.30
2022-11-08T07:29:42.220Z,3.80
2022-11-08T07:30:47.459Z,3.30
2022-11-08T07:31:49.216Z,3.27
2022-11-08T07:32:51.491Z,2.90
2022-11-08T07:33:53.224Z,3.45
2022-11-08T07:34:54.866Z,3.55
2022-11-08T07:35:58.076Z,2.53
2022-11-08T07:36:59.967Z,2.10
2022-11-08T07:38:03.066Z,2.47
2022-11-08T07:39:06.829Z,2.13
2022-11-08T07:40:10.273Z,1.90
2022-11-08T07:41:11.947Z,2.60
2022-11-08T07:42:13.515Z,2.50
2022-11-08T07:43:16.576Z,1.90
2022-11-08T07:44:19.278Z,1.63
2022-11-08T07:45:22.081Z,2.40
2022-11-08T07:46:23.765Z,2.00
2022-11-08T07:47:25.555Z,4.07
2022-11-08T07:48:29.117Z,3.40
2022-11-08T07:49:31.879Z,3.38
2022-11-08T07:50:33.969Z,2.33
2022-11-08T07:51:36.796Z,3.30
2022-11-08T07:52:38.503Z,2.20
2022-11-08T07:53:40.206Z,2.63
2022-11-08T07:54:42.137Z,2.40
2022-11-08T07:55:46.145Z,2.40
2022-11-08T07:56:47.889Z,2.40
2022-11-08T07:57:50.100Z,2.28
2022-11-08T07:58:53.281Z,2.00
2022-11-08T07:59:55.026Z,2.40
2022-11-08T08:01:02.429Z,1.80
2022-11-08T08:02:05.393Z,1.92
2022-11-08T08:03:11.942Z,1.70
2022-11-08T08:04:16.411Z,3.00
2022-11-08T08:05:22.204Z,13.23
2022-11-08T08:06:24.501Z,21.70
2022-11-08T08:07:26.105Z,15.82
2022-11-08T08:08:28.357Z,8.80
2022-11-08T08:09:31.408Z,3.30
2022-11-08T08:10:34.855Z,1.90
2022-11-08T08:11:36.646Z,2.25
2022-11-08T08:12:38.655Z,2.10
2022-11-08T08:13:48.836Z,2.70
2022-11-08T08:14:51.140Z,2.90
2022-11-08T08:15:54.013Z,2.30
2022-11-08T08:16:57.713Z,2.93
2022-11-08T08:18:01.739Z,2.60
2022-11-08T08:19:04.081Z,3.50
2022-11-08T08:20:07.403Z,2.80
2022-11-08T08:21:09.443Z,2.90
2022-11-08T08:22:12.113Z,2.67
2022-11-08T08:23:15.315Z,2.80
2022-11-08T08:24:17.457Z,4.37
2022-11-08T08:25:21.231Z,5.03
2022-11-08T08:26:24.489Z,3.80
2022-11-08T08:27:26.483Z,3.03
2022-11-08T08:28:28.045Z,3.30
2022-11-08T08:29:31.033Z,3.00
2022-11-08T08:30:34.548Z,2.50
2022-11-08T08:31:36.504Z,2.33
2022-11-08T08:32:38.891Z,2.30
2022-11-08T08:33:41.617Z,2.93
2022-11-08T08:34:43.979Z,2.30
2022-11-08T08:35:46.729Z,4.03
2022-11-08T08:36:48.446Z,2.30
2022-11-08T08:37:50.577Z,2.73
2022-11-08T08:38:52.389Z,2.13
2022-11-08T08:39:54.006Z,1.83
2022-11-08T08:40:56.523Z,2.60
2022-11-08T08:42:00.523Z,2.37
2022-11-08T08:43:07.049Z,1.80
2022-11-08T08:44:14.404Z,2.77
2022-11-08T08:45:18.339Z,2.10
2022-11-08T08:46:22.304Z,2.47
2022-11-08T08:47:25.001Z,2.70
2022-11-08T08:48:27.079Z,3.60
2022-11-08T08:49:28.817Z,3.40
2022-11-08T08:50:32.398Z,2.80
2022-11-08T08:51:35.546Z,3.10
2022-11-08T08:52:37.162Z,2.60
2022-11-08T08:53:40.600Z,2.90
2022-11-08T08:54:44.370Z,3.10
2022-11-08T08:55:48.060Z,3.10
2022-11-08T08:56:50.048Z,2.80
2022-11-08T08:57:52.003Z,2.77
2022-11-08T09:01:42.054Z,2.73
2022-11-08T09:02:44.671Z,3.30
2022-11-08T09:03:46.376Z,3.10
2022-11-08T09:04:48.114Z,2.57
2022-11-08T09:05:49.942Z,2.77
2022-11-08T09:06:51.637Z,2.97
2022-11-08T09:07:56.391Z,2.73
2022-11-08T09:08:58.187Z,2.67
2022-11-08T09:10:01.450Z,2.70
2022-11-08T09:11:03.284Z,2.70
2022-11-08T09:12:11.692Z,2.70
2022-11-08T09:13:16.441Z,2.00
2022-11-08T09:14:18.383Z,2.40
2022-11-08T09:15:21.417Z,2.30
2022-11-08T09:16:23.008Z,1.50
2022-11-08T09:17:26.456Z,1.67
2022-11-08T09:18:28.413Z,1.47
2022-11-08T09:19:30.246Z,1.57
2022-11-08T09:20:32.096Z,1.30
2022-11-08T09:21:34.275Z,1.70
2022-11-08T09:22:35.808Z,1.87
2022-11-08T09:23:38.214Z,1.73
2022-11-08T09:24:41.599Z,1.90
2022-11-08T09:25:43.178Z,1.67
2022-11-08T09:26:45.002Z,1.80
2022-11-08T09:27:47.604Z,1.30
2022-11-08T09:28:49.471Z,1.70
2022-11-08T09:29:51.198Z,1.97
2022-11-08T09:30:54.391Z,1.87
2022-11-08T09:31:56.093Z,1.30
2022-11-08T09:33:01.202Z,1.50
2022-11-08T09:35:10.979Z,1.60
2022-11-08T09:36:14.071Z,1.60
2022-11-08T09:37:17.115Z,1.70
2022-11-08T09:38:19.182Z,1.57
2022-11-08T09:39:21.110Z,1.40
2022-11-08T09:40:49.099Z,1.80
2022-11-08T09:42:26.906Z,1.60
2022-11-08T09:43:52.987Z,1.90
2022-11-08T09:45:01.065Z,1.63
2022-11-08T09:46:03.210Z,1.03
2022-11-08T09:47:15.807Z,1.60
2022-11-08T09:48:22.715Z,1.70
2022-11-08T09:49:39.006Z,1.40
2022-11-08T09:50:45.680Z,1.63
2022-11-08T09:51:48.926Z,1.67
2022-11-08T09:53:09.880Z,3.90
2022-11-08T09:54:24.224Z,2.97
2022-11-08T09:55:33.961Z,1.70
2022-11-08T09:56:38.245Z,1.43
2022-11-08T09:57:58.566Z,1.47
2022-11-08T09:59:15.519Z,2.10
2022-11-08T10:00:20.733Z,1.90
2022-11-08T10:01:27.211Z,1.53
2022-11-08T10:02:33.710Z,2.10
2022-11-08T10:03:36.948Z,2.13
2022-11-08T10:04:38.912Z,1.63
2022-11-08T10:05:43.904Z,2.00
2022-11-08T10:07:10.647Z,2.37
2022-11-08T10:08:43.177Z,1.83
2022-11-08T10:09:53.932Z,1.60
2022-11-08T10:11:01.957Z,1.87
2022-11-08T10:12:25.363Z,2.10
2022-11-08T10:13:36.706Z,1.50
2022-11-08T10:14:54.621Z,1.80
2022-11-08T10:16:27.833Z,1.67
2022-11-08T10:17:40.992Z,1.50
2022-11-08T10:19:06.156Z,2.20
2022-11-08T10:20:20.847Z,2.40
2022-11-08T10:21:47.710Z,1.70
2022-11-08T10:22:59.698Z,2.30
2022-11-08T10:24:15.143Z,2.47
2022-11-08T10:25:36.786Z,2.27
2022-11-08T10:26:43.081Z,2.10
2022-11-08T10:27:44.711Z,2.20
2022-11-08T10:28:55.242Z,2.30
2022-11-08T10:30:04.689Z,2.13
2022-11-08T10:31:06.973Z,2.17
2022-11-08T10:32:14.929Z,2.37
2022-11-08T10:33:27.617Z,2.40
2022-11-08T10:34:39.103Z,2.47
2022-11-08T10:35:57.753Z,2.80
2022-11-08T10:37:09.339Z,2.50
2022-11-08T10:38:25.211Z,2.30
2022-11-08T10:39:37.234Z,2.47
2022-11-08T10:40:50.236Z,3.50
2022-11-08T10:41:54.421Z,2.50
2022-11-08T10:43:05.500Z,2.57
2022-11-08T10:44:16.025Z,3.03
2022-11-08T10:45:18.122Z,2.00
2022-11-08T10:46:39.993Z,2.40
2022-11-08T10:47:47.193Z,2.03
2022-11-08T10:48:48.832Z,2.10
2022-11-08T10:49:57.300Z,2.70
2022-11-08T10:51:05.642Z,2.20
2022-11-08T10:52:34.541Z,2.10
2022-11-08T10:53:44.507Z,2.43
2022-11-08T10:54:49.469Z,2.40
2022-11-08T10:55:58.256Z,2.23
2022-11-08T10:57:01.009Z,2.10
2022-11-08T10:58:24.033Z,2.40
2022-11-08T10:59:32.759Z,2.30
2022-11-08T11:00:34.800Z,2.13
2022-11-08T11:01:42.411Z,2.07
2022-11-08T11:02:53.020Z,1.90
2022-11-08T11:03:56.033Z,1.90
2022-11-08T11:05:18.225Z,2.43
2022-11-08T11:06:32.639Z,3.43
2022-11-08T11:07:36.734Z,2.70
2022-11-08T11:08:54.952Z,2.47
2022-11-08T11:09:56.972Z,2.30
2022-11-08T11:11:24.552Z,2.60
2022-11-08T11:12:26.153Z,2.30
2022-11-08T11:13:29.786Z,2.30
2022-11-08T11:14:32.637Z,2.80
2022-11-08T11:15:40.687Z,2.53
2022-11-08T11:17:04.314Z,2.77
2022-11-08T11:18:30.021Z,2.50
2022-11-08T11:19:33.301Z,2.47
2022-11-08T11:20:35.655Z,2.40
2022-11-08T11:21:43.341Z,3.07
2022-11-08T11:22:46.505Z,2.23
2022-11-08T11:23:48.447Z,2.67
2022-11-08T11:24:52.981Z,2.17
2022-11-08T11:25:55.296Z,2.60
2022-11-08T11:26:57.195Z,1.90
2022-11-08T11:28:00.556Z,2.50
2022-11-08T11:29:06.913Z,2.17
2022-11-08T11:30:27.283Z,2.10
2022-11-08T11:31:31.063Z,1.90
2022-11-08T11:32:35.129Z,1.70
2022-11-08T11:33:45.490Z,1.67
2022-11-08T11:34:54.551Z,2.05
2022-11-08T11:36:12.272Z,1.90
2022-11-08T11:37:23.709Z,2.35
2022-11-08T11:38:34.144Z,2.30
2022-11-08T11:40:03.498Z,2.28
2022-11-08T11:41:15.059Z,2.70
2022-11-08T11:42:44.659Z,2.00
2022-11-08T11:44:02.615Z,2.50
2022-11-08T11:45:10.876Z,2.67
2022-11-08T11:46:30.713Z,2.27
2022-11-08T11:47:41.242Z,2.10
2022-11-08T11:48:49.217Z,2.23
2022-11-08T11:49:54.940Z,2.60
2022-11-08T11:50:57.988Z,2.20
2022-11-08T11:52:01.064Z,2.40
2022-11-08T11:53:06.798Z,3.10
2022-11-08T11:54:16.998Z,2.87
2022-11-08T11:55:18.956Z,2.77
2022-11-08T11:56:45.787Z,2.67
2022-11-08T11:57:47.470Z,2.53
2022-11-08T11:58:59.057Z,2.70
2022-11-08T12:00:11.964Z,2.50
2022-11-08T12:01:33.099Z,2.40
2022-11-08T12:03:16.002Z,2.70
2022-11-08T12:04:17.742Z,2.73
2022-11-08T12:05:44.193Z,3.13
2022-11-08T12:07:14.161Z,3.17
2022-11-08T12:08:33.780Z,3.03
2022-11-08T12:10:20.963Z,2.80
2022-11-08T12:11:47.046Z,2.67
2022-11-08T12:13:20.459Z,3.10
2022-11-08T12:14:41.463Z,2.83
2022-11-08T12:15:46.215Z,3.40
2022-11-08T12:17:23.703Z,17.50
2022-11-08T12:18:43.264Z,7.97
2022-11-08T12:20:10.832Z,5.10
2022-11-08T12:21:15.078Z,4.53
2022-11-08T12:22:27.380Z,3.60
2022-11-08T12:23:51.225Z,3.23
2022-11-08T12:25:23.490Z,2.97
2022-11-08T12:27:03.133Z,3.20
2022-11-08T12:28:25.585Z,3.33
2022-11-08T12:29:39.742Z,3.00
2022-11-08T12:30:51.783Z,2.90
2022-11-08T12:32:21.282Z,3.30
2022-11-08T12:33:58.016Z,3.27
2022-11-08T12:35:25.997Z,3.17
2022-11-08T12:36:46.509Z,3.20
2022-11-08T12:37:50.891Z,3.23
2022-11-08T12:39:12.649Z,2.63
2022-11-08T12:40:20.344Z,3.20
2022-11-08T12:41:54.034Z,2.97
2022-11-08T12:43:23.015Z,2.53
2022-11-08T12:44:47.900Z,3.00
2022-11-08T12:46:01.282Z,2.97
2022-11-08T12:47:18.184Z,3.47
2022-11-08T12:48:47.451Z,5.50
2022-11-08T12:50:25.299Z,2.60
2022-11-08T12:51:42.136Z,1.90
2022-11-08T12:53:13.715Z,2.73
2022-11-08T12:54:21.361Z,2.47
2022-11-08T12:55:29.160Z,3.07
2022-11-08T12:56:39.422Z,1.90
2022-11-08T12:57:43.198Z,1.90
2022-11-08T12:58:55.330Z,2.40
2022-11-08T13:00:18.170Z,2.43
2022-11-08T13:01:21.677Z,2.40
2022-11-08T13:02:28.836Z,2.00
2022-11-08T13:03:43.316Z,1.70
2022-11-08T13:04:57.769Z,1.77
2022-11-08T13:06:12.801Z,1.30
2022-11-08T13:07:24.617Z,1.33
2022-11-08T13:08:51.269Z,1.30
2022-11-08T13:10:17.207Z,1.30
2022-11-08T13:11:32.301Z,1.03
2022-11-08T13:12:45.482Z,1.10
2022-11-08T13:13:54.438Z,1.30
2022-11-08T13:14:58.958Z,1.50
2022-11-08T13:16:19.016Z,1.20
2022-11-08T13:17:30.982Z,1.20
2022-11-08T13:18:35.977Z,1.50
2022-11-08T13:19:47.218Z,1.40
2022-11-08T13:20:49.220Z,1.80
2022-11-08T13:21:52.209Z,1.60
2022-11-08T13:22:59.631Z,1.83
2022-11-08T13:24:06.623Z,2.40
2022-11-08T13:25:18.506Z,1.97
2022-11-08T13:26:26.789Z,1.70
2022-11-08T13:27:37.403Z,1.10
2022-11-08T13:28:44.544Z,1.90
2022-11-08T13:29:48.937Z,1.37
2022-11-08T13:31:04.126Z,1.20
2022-11-08T13:32:21.198Z,1.53
2022-11-08T13:33:29.387Z,2.07
2022-11-08T13:35:13.422Z,1.73
2022-11-08T13:36:45.993Z,1.27
2022-11-08T13:38:24.808Z,1.57
2022-11-08T13:39:38.280Z,2.50
2022-11-08T13:40:45.103Z,2.50
2022-11-08T13:42:15.229Z,2.93
2022-11-08T13:43:20.258Z,3.50
2022-11-08T13:44:56.380Z,3.40
2022-11-08T13:46:38.213Z,2.40
2022-11-08T13:47:43.395Z,3.17
2022-11-08T13:49:07.359Z,2.20
2022-11-08T13:50:29.024Z,2.13
2022-11-08T13:51:41.160Z,3.47
2022-11-08T13:53:02.510Z,2.20
2022-11-08T13:54:24.164Z,2.70
2022-11-08T13:56:07.550Z,1.90
2022-11-08T13:57:17.716Z,2.30
2022-11-08T13:58:38.391Z,2.07
2022-11-08T13:59:42.856Z,1.83
2022-11-08T14:00:47.980Z,1.80
2022-11-08T14:02:02.301Z,2.23
2022-11-08T14:03:35.150Z,2.40
2022-11-08T14:04:44.814Z,2.07
2022-11-08T14:05:51.237Z,2.10
2022-11-08T14:07:10.444Z,2.50
2022-11-08T14:08:20.984Z,2.00
2022-11-08T14:09:40.748Z,2.37
2022-11-08T14:10:52.207Z,2.10
2022-11-08T14:12:01.730Z,2.33
2022-11-08T14:13:17.809Z,2.23
2022-11-08T14:14:35.241Z,2.00
2022-11-08T14:15:56.427Z,4.80
2022-11-08T14:17:10.473Z,5.43
2022-11-08T14:18:39.616Z,4.90
2022-11-08T14:19:47.773Z,5.93
2022-11-08T14:20:50.284Z,3.57
2022-11-08T14:21:57.938Z,4.83
2022-11-08T14:23:20.622Z,3.00
2022-11-08T14:24:45.440Z,2.77
2022-11-08T14:25:49.181Z,3.00
2022-11-08T14:26:51.031Z,3.40
2022-11-08T14:27:52.657Z,7.57
2022-11-08T14:28:54.479Z,6.97
2022-11-08T14:30:01.344Z,5.33
2022-11-08T14:31:07.260Z,5.00
2022-11-08T14:32:19.841Z,5.10
2022-11-08T14:33:24.304Z,5.50
2022-11-08T14:34:30.116Z,5.20
2022-11-08T14:35:32.011Z,3.90
2022-11-08T14:36:35.716Z,3.60
2022-11-08T14:37:38.472Z,2.80
2022-11-08T14:38:51.000Z,2.73
2022-11-08T14:39:54.113Z,3.00
2022-11-08T14:41:07.606Z,2.93
2022-11-08T14:42:20.219Z,3.47
2022-11-08T14:43:23.511Z,3.17
2022-11-08T14:44:28.028Z,3.80
2022-11-08T14:45:30.133Z,3.50
2022-11-08T14:46:35.589Z,2.53
2022-11-08T14:47:37.404Z,3.03
2022-11-08T14:48:49.774Z,3.10
2022-11-08T14:49:51.639Z,3.23
2022-11-08T14:51:01.628Z,3.00
2022-11-08T14:52:19.208Z,2.47
2022-11-08T14:53:30.776Z,3.17
2022-11-08T14:54:43.663Z,2.60